RYR46VF LFOT-LFML
Flight info
| Callsign | RYR46VF |
|---|---|
| Flight time | 1h 5m |
| Altitude | 36000 |
| Route | AMB A34 SOPIL DCT BALAN DCT BEBIX DCT VALKU/N0422F330 DCT LERGA |
| Aircraft | B738/M-SDE3FGILRWY/SB1 |
Departure
| Time | 2026-04-24 11:24 |
|---|---|
| Airport | Tours Val de Loire Airport (LFOT) |
Arrival
| Time | 2026-04-24 12:29 |
|---|---|
| Airport | Marseille Provence Airport (LFML) |
| Time | Latitude | Longitude | Altitude | Speed | Heading |
|---|---|---|---|---|---|
| 2026-04-24 10:41 | 47.42629 | 0.72021 | 364 ft | 0 kts | 56° |
| 2026-04-24 11:19 | 47.42631 | 0.72034 | 367 ft | 4 kts | 85° |
| 2026-04-24 11:19 | 47.42609 | 0.72081 | 365 ft | 8 kts | 128° |
| 2026-04-24 11:20 | 47.42574 | 0.72147 | 367 ft | 9 kts | 161° |
| 2026-04-24 11:20 | 47.42497 | 0.72128 | 365 ft | 14 kts | 195° |
| 2026-04-24 11:20 | 47.42390 | 0.72085 | 365 ft | 17 kts | 195° |
| 2026-04-24 11:20 | 47.42276 | 0.72067 | 361 ft | 17 kts | 162° |
| 2026-04-24 11:21 | 47.42219 | 0.72172 | 368 ft | 7 kts | 105° |
| 2026-04-24 11:21 | 47.42217 | 0.72184 | 365 ft | 0 kts | 105° |
| 2026-04-24 11:23 | 47.42205 | 0.72248 | 366 ft | 10 kts | 105° |
| 2026-04-24 11:23 | 47.42199 | 0.72342 | 366 ft | 8 kts | 51° |
| 2026-04-24 11:23 | 47.42244 | 0.72367 | 369 ft | 7 kts | 16° |
| 2026-04-24 11:24 | 47.42316 | 0.72397 | 368 ft | 33 kts | 15° |
| 2026-04-24 11:24 | 47.42839 | 0.72607 | 361 ft | 121 kts | 15° |
| 2026-04-24 11:24 | 47.43872 | 0.73028 | 582 ft | 173 kts | 17° |
| 2026-04-24 11:24 | 47.44988 | 0.73558 | 1688 ft | 171 kts | 34° |
| 2026-04-24 11:25 | 47.45883 | 0.74902 | 2396 ft | 197 kts | 56° |
| 2026-04-24 11:25 | 47.46517 | 0.76688 | 3106 ft | 204 kts | 76° |
| 2026-04-24 11:25 | 47.46630 | 0.78782 | 3806 ft | 211 kts | 98° |
| 2026-04-24 11:25 | 47.46098 | 0.80954 | 4179 ft | 240 kts | 123° |
| 2026-04-24 11:26 | 47.44863 | 0.82678 | 5076 ft | 252 kts | 148° |
| 2026-04-24 11:26 | 47.43162 | 0.83442 | 6044 ft | 262 kts | 171° |
| 2026-04-24 11:26 | 47.41322 | 0.83517 | 7038 ft | 267 kts | 178° |
| 2026-04-24 11:26 | 47.39440 | 0.83425 | 7955 ft | 273 kts | 179° |
| 2026-04-24 11:27 | 47.37519 | 0.83308 | 8834 ft | 279 kts | 179° |
| 2026-04-24 11:27 | 47.35565 | 0.83199 | 9738 ft | 284 kts | 179° |
| 2026-04-24 11:27 | 47.33600 | 0.83104 | 10550 ft | 291 kts | 179° |
| 2026-04-24 11:27 | 47.31493 | 0.83014 | 10824 ft | 317 kts | 179° |
| 2026-04-24 11:28 | 47.29221 | 0.82925 | 11314 ft | 333 kts | 179° |
| 2026-04-24 11:28 | 47.26886 | 0.82836 | 12095 ft | 338 kts | 179° |
| 2026-04-24 11:28 | 47.24520 | 0.82750 | 12943 ft | 342 kts | 179° |
| 2026-04-24 11:28 | 47.22128 | 0.82664 | 13759 ft | 347 kts | 179° |
| 2026-04-24 11:29 | 47.19697 | 0.82581 | 14485 ft | 352 kts | 178° |
| 2026-04-24 11:29 | 47.17287 | 0.83131 | 15146 ft | 353 kts | 157° |
| 2026-04-24 11:29 | 47.15169 | 0.84910 | 15851 ft | 352 kts | 136° |
| 2026-04-24 11:29 | 47.13460 | 0.87496 | 16562 ft | 355 kts | 129° |
| 2026-04-24 11:30 | 47.11821 | 0.90248 | 17214 ft | 361 kts | 128° |
| 2026-04-24 11:30 | 47.10168 | 0.93060 | 17903 ft | 366 kts | 129° |
| 2026-04-24 11:30 | 47.08479 | 0.95887 | 18581 ft | 371 kts | 129° |
| 2026-04-24 11:30 | 47.06749 | 0.98735 | 19164 ft | 376 kts | 129° |
| 2026-04-24 11:31 | 47.04987 | 1.01611 | 19723 ft | 382 kts | 130° |
| 2026-04-24 11:31 | 47.02892 | 1.04077 | 20240 ft | 393 kts | 151° |
| 2026-04-24 11:31 | 47.00294 | 1.05368 | 20831 ft | 400 kts | 171° |
| 2026-04-24 11:31 | 46.97497 | 1.05490 | 21439 ft | 404 kts | 181° |
| 2026-04-24 11:32 | 46.94671 | 1.05351 | 21994 ft | 409 kts | 182° |
| 2026-04-24 11:32 | 46.91811 | 1.05162 | 22539 ft | 414 kts | 182° |
| 2026-04-24 11:32 | 46.88924 | 1.04975 | 23113 ft | 418 kts | 182° |
| 2026-04-24 11:32 | 46.86009 | 1.04806 | 23663 ft | 422 kts | 182° |
| 2026-04-24 11:33 | 46.83056 | 1.04656 | 24101 ft | 426 kts | 182° |
| 2026-04-24 11:33 | 46.80082 | 1.04518 | 24556 ft | 429 kts | 182° |
| 2026-04-24 11:33 | 46.78104 | 1.04431 | 24870 ft | 431 kts | 182° |
| 2026-04-24 11:33 | 46.75091 | 1.04302 | 25332 ft | 434 kts | 182° |
| 2026-04-24 11:34 | 46.72056 | 1.04173 | 25766 ft | 438 kts | 183° |
| 2026-04-24 11:34 | 46.68999 | 1.04043 | 26195 ft | 441 kts | 183° |
| 2026-04-24 11:34 | 46.65920 | 1.03912 | 26628 ft | 444 kts | 183° |
| 2026-04-24 11:34 | 46.62825 | 1.03779 | 27048 ft | 447 kts | 184° |
| 2026-04-24 11:35 | 46.59704 | 1.03646 | 27474 ft | 450 kts | 184° |
| 2026-04-24 11:35 | 46.56563 | 1.03512 | 27895 ft | 453 kts | 184° |
| 2026-04-24 11:35 | 46.53399 | 1.03612 | 28276 ft | 458 kts | 175° |
| 2026-04-24 11:35 | 46.50246 | 1.04429 | 28671 ft | 463 kts | 167° |
| 2026-04-24 11:36 | 46.47192 | 1.05957 | 29055 ft | 467 kts | 157° |
| 2026-04-24 11:36 | 46.44223 | 1.07894 | 29447 ft | 470 kts | 156° |
| 2026-04-24 11:36 | 46.41247 | 1.09902 | 29810 ft | 473 kts | 156° |
| 2026-04-24 11:36 | 46.38267 | 1.11916 | 30231 ft | 473 kts | 156° |
| 2026-04-24 11:37 | 46.35283 | 1.13910 | 30686 ft | 471 kts | 156° |
| 2026-04-24 11:37 | 46.32304 | 1.15876 | 31162 ft | 469 kts | 157° |
| 2026-04-24 11:37 | 46.29335 | 1.17814 | 31604 ft | 468 kts | 157° |
| 2026-04-24 11:37 | 46.26365 | 1.19741 | 32003 ft | 467 kts | 157° |
| 2026-04-24 11:38 | 46.23399 | 1.21659 | 32402 ft | 467 kts | 157° |
| 2026-04-24 11:38 | 46.20439 | 1.23571 | 32823 ft | 466 kts | 157° |
| 2026-04-24 11:38 | 46.17483 | 1.25479 | 33264 ft | 464 kts | 157° |
| 2026-04-24 11:38 | 46.14545 | 1.27374 | 33678 ft | 463 kts | 157° |
| 2026-04-24 11:39 | 46.11606 | 1.29270 | 34060 ft | 462 kts | 157° |
| 2026-04-24 11:39 | 46.08668 | 1.31162 | 34417 ft | 461 kts | 157° |
| 2026-04-24 11:39 | 46.05752 | 1.33039 | 34809 ft | 459 kts | 157° |
| 2026-04-24 11:39 | 46.02842 | 1.34908 | 35128 ft | 458 kts | 157° |
| 2026-04-24 11:40 | 45.99993 | 1.37005 | 35090 ft | 464 kts | 144° |
| 2026-04-24 11:40 | 45.97656 | 1.40181 | 35134 ft | 463 kts | 126° |
| 2026-04-24 11:40 | 45.96078 | 1.44161 | 35133 ft | 457 kts | 109° |
| 2026-04-24 11:40 | 45.95273 | 1.48533 | 35115 ft | 450 kts | 92° |
| 2026-04-24 11:41 | 45.95431 | 1.57450 | 35123 ft | 447 kts | 83° |
| 2026-04-24 11:41 | 45.95873 | 1.66387 | 35122 ft | 449 kts | 83° |
| 2026-04-24 11:42 | 45.96273 | 1.75369 | 35116 ft | 451 kts | 84° |
| 2026-04-24 11:42 | 45.96623 | 1.84395 | 35120 ft | 453 kts | 84° |
| 2026-04-24 11:43 | 45.96950 | 1.93386 | 35120 ft | 454 kts | 84° |
| 2026-04-24 11:43 | 45.97273 | 2.02503 | 35117 ft | 454 kts | 84° |
| 2026-04-24 11:44 | 45.97588 | 2.11565 | 35122 ft | 453 kts | 84° |
| 2026-04-24 11:44 | 45.97895 | 2.20547 | 35124 ft | 453 kts | 84° |
| 2026-04-24 11:45 | 45.98197 | 2.29580 | 35120 ft | 452 kts | 85° |
| 2026-04-24 11:45 | 45.98490 | 2.38599 | 35125 ft | 452 kts | 85° |
| 2026-04-24 11:46 | 45.98777 | 2.47614 | 35128 ft | 451 kts | 85° |
| 2026-04-24 11:46 | 45.99057 | 2.56622 | 35130 ft | 451 kts | 85° |
| 2026-04-24 11:47 | 45.99330 | 2.65629 | 35128 ft | 451 kts | 85° |
| 2026-04-24 11:47 | 45.99595 | 2.74633 | 35132 ft | 451 kts | 87° |
| 2026-04-24 11:48 | 45.99290 | 2.79109 | 35116 ft | 452 kts | 106° |
| 2026-04-24 11:48 | 45.98076 | 2.83256 | 35136 ft | 451 kts | 122° |
| 2026-04-24 11:48 | 45.96126 | 2.86757 | 35136 ft | 448 kts | 138° |
| 2026-04-24 11:48 | 45.93827 | 2.89768 | 35141 ft | 448 kts | 140° |
| 2026-04-24 11:49 | 45.89104 | 2.95624 | 35130 ft | 449 kts | 141° |
| 2026-04-24 11:49 | 45.84387 | 3.01483 | 35124 ft | 449 kts | 140° |
| 2026-04-24 11:50 | 45.79694 | 3.07398 | 35125 ft | 449 kts | 140° |
| 2026-04-24 11:50 | 45.75012 | 3.13329 | 35129 ft | 449 kts | 140° |
| 2026-04-24 11:51 | 45.70333 | 3.19249 | 35127 ft | 449 kts | 140° |
| 2026-04-24 11:51 | 45.65730 | 3.25060 | 35116 ft | 435 kts | 140° |
| 2026-04-24 11:52 | 45.61211 | 3.30747 | 35120 ft | 432 kts | 140° |
| 2026-04-24 11:52 | 45.56716 | 3.36389 | 35121 ft | 424 kts | 140° |
| 2026-04-24 11:53 | 45.54563 | 3.39090 | 35116 ft | 411 kts | 140° |
| 2026-04-24 11:53 | 45.52449 | 3.41738 | 35106 ft | 398 kts | 140° |
| 2026-04-24 11:53 | 45.50399 | 3.44303 | 35116 ft | 386 kts | 140° |
| 2026-04-24 11:53 | 45.48412 | 3.46787 | 35115 ft | 375 kts | 140° |
| 2026-04-24 11:54 | 45.44447 | 3.51730 | 35152 ft | 386 kts | 140° |
| 2026-04-24 11:54 | 45.40325 | 3.56861 | 35141 ft | 398 kts | 140° |
| 2026-04-24 11:55 | 45.36160 | 3.62039 | 35127 ft | 395 kts | 140° |
| 2026-04-24 11:55 | 45.32082 | 3.67100 | 35131 ft | 386 kts | 140° |
| 2026-04-24 11:56 | 45.28022 | 3.72128 | 35074 ft | 385 kts | 140° |
| 2026-04-24 11:56 | 45.26030 | 3.74615 | 34707 ft | 379 kts | 136° |
| 2026-04-24 11:56 | 45.24358 | 3.77524 | 33800 ft | 387 kts | 124° |
| 2026-04-24 11:57 | 45.22858 | 3.80808 | 32403 ft | 406 kts | 122° |
| 2026-04-24 11:57 | 45.21359 | 3.84254 | 31521 ft | 411 kts | 122° |
| 2026-04-24 11:57 | 45.19868 | 3.87680 | 31008 ft | 405 kts | 122° |
| 2026-04-24 11:57 | 45.18385 | 3.91040 | 30563 ft | 398 kts | 122° |
| 2026-04-24 11:58 | 45.16911 | 3.94330 | 30053 ft | 393 kts | 123° |
| 2026-04-24 11:58 | 45.15440 | 3.97582 | 29411 ft | 390 kts | 123° |
| 2026-04-24 11:58 | 45.13979 | 4.00792 | 28776 ft | 386 kts | 123° |
| 2026-04-24 11:58 | 45.12525 | 4.03976 | 28149 ft | 383 kts | 123° |
| 2026-04-24 11:59 | 45.11083 | 4.07128 | 27536 ft | 380 kts | 123° |
| 2026-04-24 11:59 | 45.09653 | 4.10252 | 26949 ft | 377 kts | 123° |
| 2026-04-24 11:59 | 45.08234 | 4.13350 | 26383 ft | 373 kts | 123° |
| 2026-04-24 11:59 | 45.06826 | 4.16421 | 25792 ft | 371 kts | 123° |
| 2026-04-24 12:00 | 45.05424 | 4.19475 | 25233 ft | 369 kts | 123° |
| 2026-04-24 12:00 | 45.04019 | 4.22491 | 24684 ft | 366 kts | 127° |
| 2026-04-24 12:00 | 45.02242 | 4.24952 | 24111 ft | 364 kts | 147° |
| 2026-04-24 12:00 | 45.00094 | 4.26811 | 23583 ft | 360 kts | 150° |
| 2026-04-24 12:01 | 44.97932 | 4.28555 | 23150 ft | 354 kts | 151° |
| 2026-04-24 12:01 | 44.95809 | 4.30245 | 22793 ft | 347 kts | 151° |
| 2026-04-24 12:01 | 44.93733 | 4.31906 | 22474 ft | 342 kts | 151° |
| 2026-04-24 12:01 | 44.91654 | 4.33582 | 22201 ft | 346 kts | 150° |
| 2026-04-24 12:02 | 44.89551 | 4.35288 | 21918 ft | 352 kts | 150° |
| 2026-04-24 12:02 | 44.87424 | 4.37023 | 21591 ft | 353 kts | 150° |
| 2026-04-24 12:02 | 44.85303 | 4.38755 | 21285 ft | 352 kts | 150° |
| 2026-04-24 12:02 | 44.83206 | 4.40470 | 21132 ft | 343 kts | 150° |
| 2026-04-24 12:03 | 44.81194 | 4.42205 | 20935 ft | 337 kts | 148° |
| 2026-04-24 12:03 | 44.79236 | 4.43997 | 20694 ft | 335 kts | 147° |
| 2026-04-24 12:03 | 44.77290 | 4.45805 | 20448 ft | 335 kts | 147° |
| 2026-04-24 12:03 | 44.75353 | 4.47606 | 20201 ft | 333 kts | 147° |
| 2026-04-24 12:04 | 44.73420 | 4.49393 | 19957 ft | 331 kts | 147° |
| 2026-04-24 12:04 | 44.71492 | 4.51166 | 19722 ft | 331 kts | 147° |
| 2026-04-24 12:04 | 44.69561 | 4.52935 | 19482 ft | 332 kts | 147° |
| 2026-04-24 12:04 | 44.67619 | 4.54709 | 19259 ft | 334 kts | 147° |
| 2026-04-24 12:05 | 44.65674 | 4.56482 | 19021 ft | 333 kts | 147° |
| 2026-04-24 12:05 | 44.63731 | 4.58251 | 18786 ft | 332 kts | 147° |
| 2026-04-24 12:05 | 44.61794 | 4.60011 | 18555 ft | 331 kts | 147° |
| 2026-04-24 12:05 | 44.59857 | 4.61768 | 18298 ft | 331 kts | 147° |
| 2026-04-24 12:06 | 44.57928 | 4.63519 | 18040 ft | 330 kts | 147° |
| 2026-04-24 12:06 | 44.56003 | 4.65263 | 17773 ft | 329 kts | 147° |
| 2026-04-24 12:06 | 44.54083 | 4.67000 | 17518 ft | 328 kts | 147° |
| 2026-04-24 12:06 | 44.52168 | 4.68734 | 17252 ft | 327 kts | 147° |
| 2026-04-24 12:07 | 44.50259 | 4.70460 | 16997 ft | 327 kts | 147° |
| 2026-04-24 12:07 | 44.48350 | 4.72184 | 16747 ft | 326 kts | 147° |
| 2026-04-24 12:07 | 44.46455 | 4.73895 | 16482 ft | 322 kts | 147° |
| 2026-04-24 12:07 | 44.44586 | 4.75581 | 16226 ft | 318 kts | 147° |
| 2026-04-24 12:08 | 44.42740 | 4.77245 | 15971 ft | 314 kts | 147° |
| 2026-04-24 12:08 | 44.40915 | 4.78887 | 15721 ft | 310 kts | 147° |
| 2026-04-24 12:08 | 44.39110 | 4.80512 | 15472 ft | 307 kts | 147° |
| 2026-04-24 12:08 | 44.37323 | 4.82119 | 15252 ft | 304 kts | 147° |
| 2026-04-24 12:09 | 44.35557 | 4.83706 | 15183 ft | 299 kts | 147° |
| 2026-04-24 12:09 | 44.33802 | 4.85281 | 15176 ft | 302 kts | 147° |
| 2026-04-24 12:09 | 44.32016 | 4.86883 | 15169 ft | 307 kts | 147° |
| 2026-04-24 12:09 | 44.30234 | 4.88481 | 15166 ft | 309 kts | 147° |
| 2026-04-24 12:10 | 44.28429 | 4.90099 | 15148 ft | 308 kts | 147° |
| 2026-04-24 12:10 | 44.26631 | 4.91708 | 15147 ft | 306 kts | 147° |
| 2026-04-24 12:10 | 44.24844 | 4.93307 | 15154 ft | 305 kts | 147° |
| 2026-04-24 12:11 | 44.21280 | 4.96493 | 15159 ft | 304 kts | 147° |
| 2026-04-24 12:11 | 44.19501 | 4.98082 | 15156 ft | 304 kts | 147° |
| 2026-04-24 12:11 | 44.17719 | 4.99672 | 15164 ft | 304 kts | 147° |
| 2026-04-24 12:11 | 44.15934 | 5.01262 | 15165 ft | 305 kts | 147° |
| 2026-04-24 12:12 | 44.14144 | 5.02856 | 15161 ft | 306 kts | 147° |
| 2026-04-24 12:12 | 44.12225 | 5.04119 | 15144 ft | 306 kts | 167° |
| 2026-04-24 12:12 | 44.10134 | 5.04649 | 15164 ft | 307 kts | 171° |
| 2026-04-24 12:12 | 44.08023 | 5.05105 | 15161 ft | 307 kts | 171° |
| 2026-04-24 12:13 | 44.05908 | 5.05557 | 15162 ft | 308 kts | 171° |
| 2026-04-24 12:13 | 44.03787 | 5.06019 | 15154 ft | 309 kts | 171° |
| 2026-04-24 12:13 | 44.01664 | 5.06491 | 15152 ft | 309 kts | 171° |
| 2026-04-24 12:13 | 43.99539 | 5.06971 | 15155 ft | 309 kts | 171° |
| 2026-04-24 12:14 | 43.97415 | 5.07453 | 15161 ft | 310 kts | 171° |
| 2026-04-24 12:14 | 43.95286 | 5.07939 | 15155 ft | 310 kts | 170° |
| 2026-04-24 12:14 | 43.93162 | 5.08424 | 15150 ft | 310 kts | 171° |
| 2026-04-24 12:14 | 43.91037 | 5.08910 | 15158 ft | 309 kts | 171° |
| 2026-04-24 12:15 | 43.88913 | 5.09395 | 15154 ft | 309 kts | 170° |
| 2026-04-24 12:15 | 43.86809 | 5.10062 | 14920 ft | 313 kts | 162° |
| 2026-04-24 12:15 | 43.84826 | 5.10998 | 14614 ft | 315 kts | 160° |
| 2026-04-24 12:15 | 43.82770 | 5.12044 | 14285 ft | 314 kts | 160° |
| 2026-04-24 12:16 | 43.80723 | 5.13077 | 13958 ft | 312 kts | 160° |
| 2026-04-24 12:16 | 43.78682 | 5.14083 | 13600 ft | 311 kts | 161° |
| 2026-04-24 12:16 | 43.76648 | 5.15063 | 13250 ft | 309 kts | 161° |
| 2026-04-24 12:16 | 43.74619 | 5.16028 | 12913 ft | 307 kts | 161° |
| 2026-04-24 12:17 | 43.72606 | 5.16980 | 12601 ft | 305 kts | 161° |
| 2026-04-24 12:17 | 43.70607 | 5.17921 | 12283 ft | 303 kts | 161° |
| 2026-04-24 12:17 | 43.68613 | 5.18827 | 11967 ft | 301 kts | 162° |
| 2026-04-24 12:17 | 43.66627 | 5.19714 | 11657 ft | 299 kts | 162° |
| 2026-04-24 12:18 | 43.64683 | 5.20584 | 11358 ft | 297 kts | 162° |
| 2026-04-24 12:18 | 43.62723 | 5.21464 | 11055 ft | 295 kts | 162° |
| 2026-04-24 12:18 | 43.60772 | 5.22339 | 10744 ft | 294 kts | 162° |
| 2026-04-24 12:18 | 43.58829 | 5.23188 | 10444 ft | 292 kts | 166° |
| 2026-04-24 12:19 | 43.56816 | 5.23371 | 10141 ft | 291 kts | 185° |
| 2026-04-24 12:19 | 43.54842 | 5.23097 | 10046 ft | 281 kts | 186° |
| 2026-04-24 12:19 | 43.52863 | 5.22810 | 9567 ft | 286 kts | 186° |
| 2026-04-24 12:19 | 43.50887 | 5.22538 | 9212 ft | 286 kts | 185° |
| 2026-04-24 12:20 | 43.48911 | 5.22280 | 8909 ft | 285 kts | 185° |
| 2026-04-24 12:20 | 43.47010 | 5.22039 | 8614 ft | 284 kts | 185° |
| 2026-04-24 12:20 | 43.44994 | 5.21787 | 8306 ft | 282 kts | 185° |
| 2026-04-24 12:20 | 43.43049 | 5.21549 | 8022 ft | 280 kts | 185° |
| 2026-04-24 12:21 | 43.41123 | 5.21332 | 7735 ft | 278 kts | 185° |
| 2026-04-24 12:21 | 43.39192 | 5.21104 | 7380 ft | 279 kts | 185° |
| 2026-04-24 12:21 | 43.37270 | 5.20880 | 7173 ft | 274 kts | 184° |
| 2026-04-24 12:21 | 43.35373 | 5.20667 | 6808 ft | 276 kts | 184° |
| 2026-04-24 12:22 | 43.33470 | 5.20458 | 6657 ft | 270 kts | 184° |
| 2026-04-24 12:22 | 43.31617 | 5.20251 | 6308 ft | 264 kts | 184° |
| 2026-04-24 12:22 | 43.29816 | 5.20048 | 6038 ft | 255 kts | 184° |
| 2026-04-24 12:22 | 43.28633 | 5.20070 | 5844 ft | 252 kts | 168° |
| 2026-04-24 12:23 | 43.27036 | 5.20995 | 5538 ft | 251 kts | 146° |
| 2026-04-24 12:23 | 43.25636 | 5.22415 | 5232 ft | 247 kts | 141° |
| 2026-04-24 12:23 | 43.24313 | 5.23864 | 4970 ft | 239 kts | 140° |
| 2026-04-24 12:23 | 43.23285 | 5.25554 | 4717 ft | 226 kts | 115° |
| 2026-04-24 12:24 | 43.22896 | 5.27582 | 4481 ft | 219 kts | 95° |
| 2026-04-24 12:24 | 43.22873 | 5.29653 | 4256 ft | 215 kts | 84° |
| 2026-04-24 12:24 | 43.23405 | 5.31484 | 4013 ft | 209 kts | 51° |
| 2026-04-24 12:24 | 43.24543 | 5.32652 | 3788 ft | 204 kts | 21° |
| 2026-04-24 12:25 | 43.25918 | 5.32964 | 3563 ft | 199 kts | 1° |
| 2026-04-24 12:25 | 43.27295 | 5.32948 | 3341 ft | 198 kts | 358° |
| 2026-04-24 12:25 | 43.28671 | 5.32904 | 3124 ft | 197 kts | 358° |
| 2026-04-24 12:25 | 43.30017 | 5.32697 | 2907 ft | 191 kts | 345° |
| 2026-04-24 12:26 | 43.31247 | 5.32223 | 2759 ft | 178 kts | 342° |
| 2026-04-24 12:26 | 43.32415 | 5.31752 | 2614 ft | 173 kts | 342° |
| 2026-04-24 12:26 | 43.33573 | 5.31295 | 2492 ft | 174 kts | 342° |
| 2026-04-24 12:26 | 43.34739 | 5.30839 | 2380 ft | 174 kts | 342° |
| 2026-04-24 12:27 | 43.35899 | 5.30391 | 2272 ft | 174 kts | 342° |
| 2026-04-24 12:27 | 43.37079 | 5.29927 | 2177 ft | 177 kts | 342° |
| 2026-04-24 12:27 | 43.38191 | 5.29233 | 1853 ft | 171 kts | 319° |
| 2026-04-24 12:27 | 43.39039 | 5.28118 | 1563 ft | 169 kts | 312° |
| 2026-04-24 12:28 | 43.39834 | 5.26982 | 1348 ft | 162 kts | 311° |
| 2026-04-24 12:28 | 43.40603 | 5.25881 | 1021 ft | 157 kts | 312° |
| 2026-04-24 12:28 | 43.41351 | 5.24810 | 720 ft | 154 kts | 312° |
| 2026-04-24 12:28 | 43.42074 | 5.23786 | 422 ft | 146 kts | 311° |
| 2026-04-24 12:29 | 43.42767 | 5.22800 | 158 ft | 140 kts | 311° |
| 2026-04-24 12:29 | 43.43433 | 5.21847 | 37 ft | 130 kts | 310° |
| 2026-04-24 12:29 | 43.43984 | 5.21057 | 35 ft | 98 kts | 314° |
| 2026-04-24 12:29 | 43.44362 | 5.20522 | 36 ft | 43 kts | 314° |
| 2026-04-24 12:30 | 43.44535 | 5.20273 | 36 ft | 24 kts | 313° |
| 2026-04-24 12:30 | 43.44667 | 5.20293 | 36 ft | 23 kts | 63° |
| 2026-04-24 12:30 | 43.44595 | 5.20459 | 36 ft | 23 kts | 134° |
| 2026-04-24 12:30 | 43.44466 | 5.20643 | 36 ft | 28 kts | 133° |
| 2026-04-24 12:31 | 43.44338 | 5.20830 | 36 ft | 26 kts | 130° |
| 2026-04-24 12:31 | 43.44242 | 5.21031 | 36 ft | 24 kts | 131° |
| 2026-04-24 12:31 | 43.44126 | 5.21196 | 36 ft | 25 kts | 134° |
| 2026-04-24 12:31 | 43.44093 | 5.21379 | 36 ft | 22 kts | 45° |
| 2026-04-24 12:32 | 43.44203 | 5.21525 | 35 ft | 22 kts | 44° |
| 2026-04-24 12:32 | 43.44297 | 5.21649 | 36 ft | 14 kts | 44° |
| 2026-04-24 12:32 | 43.44304 | 5.21682 | 36 ft | 4 kts | 128° |
| 2026-04-24 12:32 | 43.44283 | 5.21718 | 36 ft | 3 kts | 136° |
| 2026-04-24 12:33 | 43.44273 | 5.21710 | 36 ft | 2 kts | 232° |
| 2026-04-24 12:33 | 43.44270 | 5.21689 | 36 ft | 2 kts | 264° |
| 2026-04-24 12:33 | 43.44270 | 5.21686 | 36 ft | 0 kts | 264° |